Elation — 3FOC5 — position and weather

sailwx.info

Track history (hours):
 
Tides and Currents Weather Stations Pressure Air Temp Water Temp Dewpoint Dewpoint Depression Visibility Wind Speed Wind Dir Waves Ship Positions

Elation

Operator: Carnival Cruise Lines

Last reported at 2015-Jul-30 11:33 UTC. Time now 2015-Jul-30 20:17 UTC.
Position N 29°57' W 090°04'.

Type: Ship. MMSI: 355831000.

Date/timePositionNaut miles runAvg speedWind from/ knotsBaromVisibWave heightAir tempDewpointWater temp
2015-Jul-30 11:33N 29°57' W 090°04'  
2015-Jul-27 23:06N 20°36' W 086°57'611.6
2015-Jul-27 22:34N 20°30' W 086°59'2 1.5
2015-Jul-27 21:32N 20°29' W 086°59'0 0.0
2015-Jul-27 20:31N 20°29' W 086°59'0 0.0
2015-Jul-27 19:31N 20°29' W 086°59'0 0.0
2015-Jul-27 18:33N 20°29' W 086°59'0 0.0
2015-Jul-27 17:33N 20°29' W 086°59'0 0.0
2015-Jul-27 16:32N 20°29' W 086°59'0 0.0
2015-Jul-27 15:32N 20°29' W 086°59'0 0.0
2015-Jul-27 14:32N 20°29' W 086°59'0 0.0
2015-Jul-27 13:31N 20°29' W 086°59'0 0.0
2015-Jul-27 12:31N 20°29' W 086°59'0 0.0
2015-Jul-27 11:33N 20°29' W 086°59'1 0.6
2015-Jul-27 10:33N 20°29' W 086°59'59114.0
2015-Jul-25 16:19N 29°56' W 090°04'0 0.1
2015-Jul-25 12:23N 29°57' W 090°04'22 7.4
2015-Jul-25 09:21N 29°36' W 089°52'2612.1
2015-Jul-25 07:12N 29°21' W 089°28'  
2015-Jul-22 23:10N 20°35' W 086°57'610.4
2015-Jul-22 22:33N 20°29' W 086°59'1 0.8
2015-Jul-22 21:31N 20°29' W 086°59'0 0.0
2015-Jul-22 20:28N 20°29' W 086°59'0 0.0
2015-Jul-22 19:34N 20°29' W 086°59'0 0.0
2015-Jul-22 18:33N 20°29' W 086°59'0 0.0
2015-Jul-22 17:33N 20°29' W 086°59'0 0.0
2015-Jul-22 16:32N 20°29' W 086°59'0 0.0
2015-Jul-22 15:29N 20°29' W 086°59'0 0.0
2015-Jul-22 14:31N 20°29' W 086°59'0 0.0
2015-Jul-22 13:31N 20°29' W 086°59'0 0.2
2015-Jul-22 12:33N 20°29' W 086°59'59212.7
2015-Jul-20 14:04N 29°56' W 090°04'0 0.0
2015-Jul-20 13:13N 29°56' W 090°04'0 0.3
2015-Jul-20 12:33N 29°57' W 090°04'  
Track history (hours):
 
Tides and Currents Weather Stations Pressure Air Temp Water Temp Dewpoint Dewpoint Depression Visibility Wind Speed Wind Dir Waves Ship Positions

Elation

Operator: Carnival Cruise Lines

Last reported at 2015-Jul-30 11:33 UTC. Time now 2015-Jul-30 20:17 UTC.
Position N 29°57' W 090°04'.

Type: Ship. MMSI: 355831000.

Date/timePositionNaut miles runAvg speedWind from/ knotsBaromVisibWave heightAir tempDewpointWater temp
2015-Jul-30 11:33N 29°57' W 090°04'  
2015-Jul-27 23:06N 20°36' W 086°57'611.6
2015-Jul-27 22:34N 20°30' W 086°59'2 1.5
2015-Jul-27 21:32N 20°29' W 086°59'0 0.0
2015-Jul-27 20:31N 20°29' W 086°59'0 0.0
2015-Jul-27 19:31N 20°29' W 086°59'0 0.0
2015-Jul-27 18:33N 20°29' W 086°59'0 0.0
2015-Jul-27 17:33N 20°29' W 086°59'0 0.0
2015-Jul-27 16:32N 20°29' W 086°59'0 0.0
2015-Jul-27 15:32N 20°29' W 086°59'0 0.0
2015-Jul-27 14:32N 20°29' W 086°59'0 0.0
2015-Jul-27 13:31N 20°29' W 086°59'0 0.0
2015-Jul-27 12:31N 20°29' W 086°59'0 0.0
2015-Jul-27 11:33N 20°29' W 086°59'1 0.6
2015-Jul-27 10:33N 20°29' W 086°59'59114.0
2015-Jul-25 16:19N 29°56' W 090°04'0 0.1
2015-Jul-25 12:23N 29°57' W 090°04'22 7.4
2015-Jul-25 09:21N 29°36' W 089°52'2612.1
2015-Jul-25 07:12N 29°21' W 089°28'  
2015-Jul-22 23:10N 20°35' W 086°57'610.4
2015-Jul-22 22:33N 20°29' W 086°59'1 0.8
2015-Jul-22 21:31N 20°29' W 086°59'0 0.0
2015-Jul-22 20:28N 20°29' W 086°59'0 0.0
2015-Jul-22 19:34N 20°29' W 086°59'0 0.0
2015-Jul-22 18:33N 20°29' W 086°59'0 0.0
2015-Jul-22 17:33N 20°29' W 086°59'0 0.0
2015-Jul-22 16:32N 20°29' W 086°59'0 0.0
2015-Jul-22 15:29N 20°29' W 086°59'0 0.0
2015-Jul-22 14:31N 20°29' W 086°59'0 0.0
2015-Jul-22 13:31N 20°29' W 086°59'0 0.2
2015-Jul-22 12:33N 20°29' W 086°59'59212.7
2015-Jul-20 14:04N 29°56' W 090°04'0 0.0
2015-Jul-20 13:13N 29°56' W 090°04'0 0.3
2015-Jul-20 12:33N 29°57' W 090°04'  

Dump ship's entire track history